Pagina principală
METAR-TAF:

METAR-TAF

Aeroporturi :

Renton Municipal Airport

Renton, Washington, Statele Unite ale Americii

Latitudine: 47-29-40N, longitudine: 122-12-46W, elevație: 8 m

Observații meteo curente

Raportul a fost făcut în urmă cu 55 de minute, la 07:53 UTC
Vânt calm
Temperatură 13°C
Umiditate 62%
Presiune 1020 hPa
Nori puțini la o înălțime de 6000 picior

METAR: KRNT 140753Z AUTO 00000KT FEW060 13/06 A3011 RMK AO2 SLP199 T01330061 402110106 $

Ora: 01:48 (08:48 UTC)


TAF: lipsă

Observații și prognoze meteo pentru peste 4.000 de aeroporturi (rapoarte METAR și TAF).

Stațiile disponibile sunt reprezentate pe hartă prin puncte galbene și roșii.

Țineți indicatorul mouse-ului pe punctul dorit pentru a vedea denumirea stației.

Apoi, faceți clic pentru a vedea observațiile și prognozele meteorologice.

Pentru a schimba harta: Pentru mărire, faceți clic pe butoanele verzi cu cruce neagră; pentru micșorare, pe butonul verde cu o liniuță; pentru hărți învecinate, pe săgețile verzi.


METAR-TAF: